createdAt,value
2023-05-26T00:02:26.364Z,20.23
2023-05-26T00:04:59.591Z,19.23
2023-05-26T00:07:34.114Z,21.70
2023-05-26T00:10:04.995Z,20.67
2023-05-26T00:12:34.755Z,22.70
2023-05-26T00:15:04.433Z,18.48
2023-05-26T00:17:34.076Z,20.13
2023-05-26T00:20:05.612Z,23.20
2023-05-26T00:22:38.810Z,19.80
2023-05-26T00:25:09.685Z,19.92
2023-05-26T00:27:39.326Z,19.27
2023-05-26T00:30:11.772Z,24.50
2023-05-26T00:32:41.778Z,19.90
2023-05-26T00:35:12.579Z,18.42
2023-05-26T00:37:44.788Z,19.13
2023-05-26T00:40:15.905Z,20.13
2023-05-26T00:42:45.816Z,22.35
2023-05-26T00:45:15.697Z,23.52
2023-05-26T00:47:45.568Z,20.90
2023-05-26T00:50:18.523Z,21.73
2023-05-26T00:52:51.201Z,21.15
2023-05-26T00:55:22.663Z,22.30
2023-05-26T00:57:52.765Z,20.23
2023-05-26T01:00:24.030Z,21.63
2023-05-26T01:03:00.578Z,21.02
2023-05-26T01:05:30.401Z,22.60
2023-05-26T01:08:03.857Z,18.60
2023-05-26T01:10:34.141Z,22.30
2023-05-26T01:13:08.872Z,21.58
2023-05-26T01:15:44.804Z,19.15
2023-05-26T01:18:18.370Z,21.02
2023-05-26T01:20:55.263Z,23.25
2023-05-26T01:24:02.922Z,20.92
2023-05-26T01:26:41.308Z,22.05
2023-05-26T01:29:16.365Z,20.95
2023-05-26T01:31:48.341Z,23.70
2023-05-26T01:34:18.022Z,23.63
2023-05-26T01:36:47.639Z,20.67
2023-05-26T01:39:17.736Z,18.17
2023-05-26T01:41:52.611Z,18.70
2023-05-26T01:44:30.584Z,17.20
2023-05-26T01:47:01.601Z,21.17
2023-05-26T01:49:36.771Z,17.30
2023-05-26T01:52:09.453Z,20.98
2023-05-26T01:54:46.783Z,21.42
2023-05-26T01:57:18.527Z,20.65
2023-05-26T01:59:55.761Z,20.40
2023-05-26T02:02:25.533Z,16.17
2023-05-26T02:04:57.247Z,21.23
2023-05-26T02:07:26.856Z,22.60
2023-05-26T02:09:57.733Z,19.02
2023-05-26T02:12:27.408Z,21.25
2023-05-26T02:15:01.821Z,18.02
2023-05-26T02:17:32.776Z,18.73
2023-05-26T02:20:04.622Z,19.17
2023-05-26T02:22:34.857Z,18.98
2023-05-26T02:25:04.547Z,18.98
2023-05-26T02:27:34.194Z,17.40
2023-05-26T02:30:09.098Z,19.58
2023-05-26T02:32:39.230Z,20.48
2023-05-26T02:35:10.752Z,19.60
2023-05-26T02:37:43.414Z,17.23
2023-05-26T02:40:13.936Z,17.23
2023-05-26T02:42:43.600Z,22.73
2023-05-26T02:45:16.080Z,15.88
2023-05-26T02:47:45.775Z,22.50
2023-05-26T02:50:19.722Z,15.73
2023-05-26T02:52:49.315Z,16.98
2023-05-26T02:55:19.774Z,15.95
2023-05-26T02:57:49.465Z,18.63
2023-05-26T03:00:23.830Z,18.13
2023-05-26T03:02:53.525Z,16.98
2023-05-26T03:05:23.239Z,17.15
2023-05-26T03:07:52.883Z,15.40
2023-05-26T03:10:22.671Z,17.75
2023-05-26T03:12:52.306Z,20.27
2023-05-26T03:15:24.520Z,16.40
2023-05-26T03:17:54.283Z,16.15
2023-05-26T03:20:25.074Z,17.80
2023-05-26T03:22:56.729Z,15.85
2023-05-26T03:25:26.646Z,16.33
2023-05-26T03:27:56.746Z,24.27
2023-05-26T03:30:29.574Z,13.40
2023-05-26T03:33:02.081Z,15.07
2023-05-26T03:35:32.779Z,15.88
2023-05-26T03:38:02.623Z,18.65
2023-05-26T03:40:32.213Z,15.50
2023-05-26T03:43:02.946Z,18.02
2023-05-26T03:45:35.291Z,14.50
2023-05-26T03:48:05.761Z,15.00
2023-05-26T03:50:35.466Z,15.50
2023-05-26T03:53:05.276Z,16.20
2023-05-26T03:55:37.784Z,16.48
2023-05-26T03:58:07.986Z,21.20
2023-05-26T04:00:40.282Z,15.63
2023-05-26T04:03:10.031Z,17.02
2023-05-26T04:05:39.834Z,17.48
2023-05-26T04:08:09.607Z,14.60
2023-05-26T04:10:39.717Z,15.40
2023-05-26T04:13:09.384Z,18.58
2023-05-26T04:15:41.679Z,14.55
2023-05-26T04:18:11.621Z,14.23
2023-05-26T04:20:44.775Z,15.10
2023-05-26T04:23:14.579Z,17.38
2023-05-26T04:25:44.833Z,12.57
2023-05-26T04:28:15.414Z,14.48
2023-05-26T04:30:47.724Z,10.02
2023-05-26T04:33:17.672Z,10.80
2023-05-26T04:35:49.692Z,10.75
2023-05-26T04:38:21.742Z,10.02
2023-05-26T04:40:51.581Z,11.55
2023-05-26T04:43:28.931Z,9.45
2023-05-26T04:46:03.911Z,11.30
2023-05-26T04:48:35.538Z,9.48
2023-05-26T04:51:05.159Z,11.25
2023-05-26T04:53:35.733Z,9.77
2023-05-26T04:56:06.907Z,13.98
2023-05-26T04:58:39.517Z,13.57
2023-05-26T05:01:12.794Z,10.38
2023-05-26T05:03:44.529Z,9.82
2023-05-26T05:06:16.112Z,12.73
2023-05-26T05:08:45.913Z,8.63
2023-05-26T05:11:15.954Z,13.68
2023-05-26T05:13:45.583Z,10.35
2023-05-26T05:16:17.993Z,12.23
2023-05-26T05:18:47.720Z,15.85
2023-05-26T05:21:17.554Z,12.98
2023-05-26T05:23:47.850Z,11.38
2023-05-26T05:26:19.380Z,12.20
2023-05-26T05:28:49.016Z,11.57
2023-05-26T05:31:31.226Z,10.02
2023-05-26T05:34:00.824Z,10.85
2023-05-26T05:36:31.748Z,11.35
2023-05-26T05:39:01.785Z,11.18
2023-05-26T05:41:31.484Z,11.00
2023-05-26T05:44:01.897Z,11.27
2023-05-26T05:46:34.806Z,12.60
2023-05-26T05:49:05.644Z,10.30
2023-05-26T05:51:35.248Z,11.07
2023-05-26T05:54:05.883Z,11.93
2023-05-26T05:56:35.656Z,12.27
2023-05-26T05:59:05.436Z,11.48
2023-05-26T06:01:38.028Z,9.00
2023-05-26T06:04:07.837Z,10.73
2023-05-26T06:06:39.453Z,9.73
2023-05-26T06:09:09.204Z,10.13
2023-05-26T06:11:39.725Z,9.05
2023-05-26T06:14:11.342Z,12.98
2023-05-26T06:16:52.792Z,9.63
2023-05-26T06:19:22.512Z,10.55
2023-05-26T06:21:53.177Z,14.75
2023-05-26T06:24:22.756Z,10.45
2023-05-26T06:26:52.417Z,9.45
2023-05-26T06:29:22.119Z,9.77
2023-05-26T06:31:55.838Z,9.35
2023-05-26T06:34:26.738Z,14.48
2023-05-26T06:36:58.778Z,10.50
2023-05-26T06:39:29.191Z,8.10
2023-05-26T06:41:58.781Z,10.23
2023-05-26T06:44:29.757Z,11.63
2023-05-26T06:47:02.771Z,11.18
2023-05-26T06:49:35.112Z,9.38
2023-05-26T06:52:06.745Z,11.65
2023-05-26T06:54:36.379Z,10.07
2023-05-26T06:57:06.673Z,11.40
2023-05-26T06:59:36.280Z,10.38
2023-05-26T07:02:08.592Z,14.50
2023-05-26T07:04:38.327Z,13.68
2023-05-26T07:07:08.149Z,10.98
2023-05-26T07:09:38.774Z,11.38
2023-05-26T07:12:10.377Z,13.48
2023-05-26T07:14:39.997Z,11.98
2023-05-26T07:17:13.141Z,12.85
2023-05-26T07:19:43.718Z,9.90
2023-05-26T07:22:13.322Z,9.30
2023-05-26T07:24:42.955Z,11.30
2023-05-26T07:27:14.793Z,12.02
2023-05-26T07:29:46.130Z,9.90
2023-05-26T07:32:18.828Z,12.57
2023-05-26T07:34:48.558Z,10.63
2023-05-26T07:37:18.753Z,8.52
2023-05-26T07:39:48.437Z,10.93
2023-05-26T07:42:18.113Z,9.45
2023-05-26T07:44:47.810Z,10.43
2023-05-26T07:47:20.085Z,10.85
2023-05-26T07:49:50.856Z,10.75
2023-05-26T07:52:20.551Z,10.70
2023-05-26T07:54:50.145Z,7.18
2023-05-26T07:57:29.497Z,10.48
2023-05-26T08:00:01.273Z,10.63
2023-05-26T08:02:33.976Z,9.82
2023-05-26T08:05:04.287Z,7.45
2023-05-26T08:07:33.938Z,11.43
2023-05-26T08:10:03.591Z,11.27
2023-05-26T08:12:35.734Z,8.40
2023-05-26T08:15:07.752Z,11.35
2023-05-26T08:17:42.018Z,10.13
2023-05-26T08:20:12.778Z,11.67
2023-05-26T08:22:42.747Z,8.43
2023-05-26T08:25:15.757Z,9.65
2023-05-26T08:27:45.526Z,10.02
2023-05-26T08:30:15.761Z,13.40
2023-05-26T08:32:48.811Z,13.57
2023-05-26T08:35:18.643Z,12.80
2023-05-26T08:37:48.218Z,12.73
2023-05-26T08:40:18.653Z,15.38
2023-05-26T08:42:53.470Z,12.20
2023-05-26T08:45:23.783Z,9.90
2023-05-26T08:47:59.160Z,9.50
2023-05-26T08:55:51.811Z,10.77
2023-05-26T08:58:24.039Z,9.10
2023-05-26T09:00:53.870Z,11.68
2023-05-26T09:03:26.335Z,9.10
2023-05-26T09:05:57.567Z,9.38
2023-05-26T09:08:27.953Z,10.30
2023-05-26T09:10:58.774Z,10.40
2023-05-26T09:13:29.859Z,9.73
2023-05-26T09:16:10.009Z,13.75
2023-05-26T09:18:49.574Z,8.48
2023-05-26T09:21:19.940Z,10.10
2023-05-26T09:23:58.204Z,12.30
2023-05-26T09:26:32.740Z,13.45
2023-05-26T09:29:03.085Z,8.63
2023-05-26T09:31:43.834Z,8.63
2023-05-26T09:34:18.604Z,8.05
2023-05-26T09:36:48.329Z,6.93
2023-05-26T09:39:18.058Z,7.72
2023-05-26T09:41:49.365Z,8.68
2023-05-26T09:44:20.950Z,10.90
2023-05-26T09:46:54.004Z,9.80
2023-05-26T09:49:26.541Z,12.05
2023-05-26T09:52:10.412Z,9.95
2023-05-26T09:54:43.437Z,8.32
2023-05-26T09:57:15.898Z,12.65
2023-05-26T09:59:52.098Z,10.48
2023-05-26T10:02:23.723Z,8.20
2023-05-26T10:04:57.798Z,9.27
2023-05-26T10:07:28.449Z,8.55
2023-05-26T10:10:02.809Z,9.82
2023-05-26T10:12:34.600Z,9.00
2023-05-26T10:15:06.766Z,8.73
2023-05-26T10:17:37.758Z,8.70
2023-05-26T10:20:15.257Z,9.38
2023-05-26T10:22:52.910Z,8.63
2023-05-26T10:25:27.939Z,9.95
2023-05-26T10:28:05.781Z,9.93
2023-05-26T10:30:36.710Z,8.10
2023-05-26T10:33:12.780Z,11.57
2023-05-26T10:36:00.820Z,7.05
2023-05-26T10:38:32.890Z,7.70
2023-05-26T10:41:02.566Z,8.38
2023-05-26T10:43:33.774Z,8.10
2023-05-26T10:46:07.690Z,6.28
2023-05-26T10:48:40.796Z,7.22
2023-05-26T10:51:22.427Z,6.03
2023-05-26T10:53:52.450Z,9.48
2023-05-26T10:56:26.792Z,10.50
2023-05-26T10:59:01.780Z,8.18
2023-05-26T11:01:33.149Z,8.55
2023-05-26T11:04:11.568Z,10.52
2023-05-26T11:06:51.854Z,7.82
2023-05-26T11:09:30.811Z,9.02
2023-05-26T11:12:02.237Z,8.55
2023-05-26T11:14:34.440Z,12.63
2023-05-26T11:17:05.917Z,9.05
2023-05-26T11:19:36.991Z,8.75
2023-05-26T11:22:11.064Z,10.35
2023-05-26T11:24:42.762Z,10.35
2023-05-26T11:27:17.334Z,8.60
2023-05-26T11:29:50.672Z,8.60
2023-05-26T11:32:20.397Z,6.90
2023-05-26T11:34:50.071Z,7.65
2023-05-26T11:37:25.172Z,7.88
2023-05-26T11:39:55.778Z,9.52
2023-05-26T11:42:25.444Z,7.72
2023-05-26T11:44:55.213Z,7.07
2023-05-26T11:47:25.703Z,7.88
2023-05-26T11:49:55.404Z,6.57
2023-05-26T11:52:27.598Z,9.02
2023-05-26T11:54:58.572Z,6.45
2023-05-26T11:57:32.431Z,8.60
2023-05-26T12:00:10.501Z,8.45
2023-05-26T12:02:40.905Z,11.82
2023-05-26T12:05:21.171Z,9.10
2023-05-26T12:08:10.840Z,12.60
2023-05-26T12:10:44.777Z,9.23
2023-05-26T12:13:14.502Z,9.55
2023-05-26T12:15:53.702Z,10.07
2023-05-26T12:18:26.110Z,6.97
2023-05-26T12:20:56.168Z,10.80
2023-05-26T12:23:32.512Z,8.68
2023-05-26T12:26:02.148Z,8.73
2023-05-26T12:28:32.052Z,11.57
2023-05-26T12:31:01.696Z,10.90
2023-05-26T12:33:31.664Z,8.88
2023-05-26T12:36:01.663Z,8.98
2023-05-26T12:38:43.595Z,6.78
2023-05-26T12:41:13.528Z,8.82
2023-05-26T12:43:43.829Z,7.25
2023-05-26T12:46:14.831Z,9.27
2023-05-26T12:48:44.880Z,8.98
2023-05-26T12:51:17.554Z,8.90
2023-05-26T12:53:52.438Z,8.95
2023-05-26T12:56:22.344Z,8.13
2023-05-26T12:58:52.014Z,7.85
2023-05-26T13:01:21.999Z,8.60
2023-05-26T13:06:27.823Z,8.32
2023-05-26T13:09:00.137Z,8.15
2023-05-26T13:11:29.790Z,7.82
2023-05-26T13:13:59.537Z,6.80
2023-05-26T13:16:29.201Z,14.05
2023-05-26T13:18:58.876Z,9.15
2023-05-26T13:21:31.771Z,7.97
2023-05-26T13:24:04.776Z,9.77
2023-05-26T13:26:34.736Z,9.48
2023-05-26T13:29:04.672Z,6.47
2023-05-26T13:31:35.797Z,15.27
2023-05-26T13:34:05.454Z,5.75
2023-05-26T13:36:37.124Z,8.75
2023-05-26T13:39:09.605Z,7.40
2023-05-26T13:41:39.762Z,6.93
2023-05-26T13:44:09.360Z,10.23
2023-05-26T13:46:39.760Z,9.75
2023-05-26T13:49:10.248Z,6.95
2023-05-26T13:51:39.893Z,7.72
2023-05-26T13:54:12.074Z,8.13
2023-05-26T13:56:42.777Z,9.02
2023-05-26T13:59:12.437Z,10.05
2023-05-26T14:01:42.770Z,9.13
2023-05-26T14:04:13.153Z,9.65
2023-05-26T14:06:42.924Z,10.35
2023-05-26T14:09:15.178Z,5.93
2023-05-26T14:11:44.853Z,8.18
2023-05-26T14:14:14.505Z,11.68
2023-05-26T14:16:44.262Z,7.45
2023-05-26T14:19:18.911Z,8.15
2023-05-26T14:22:09.181Z,7.60
2023-05-26T14:24:44.893Z,9.65
2023-05-26T14:27:14.902Z,8.88
2023-05-26T14:29:44.533Z,7.43
2023-05-26T14:32:16.162Z,6.18
2023-05-26T14:34:46.292Z,8.57
2023-05-26T14:37:16.769Z,9.63
2023-05-26T14:39:49.068Z,7.85
2023-05-26T14:42:18.755Z,9.70
2023-05-26T14:44:49.640Z,8.40
2023-05-26T14:47:19.977Z,8.45
2023-05-26T14:49:50.787Z,10.55
2023-05-26T14:52:20.415Z,8.23
2023-05-26T14:54:52.661Z,8.98
2023-05-26T14:57:22.929Z,7.13
2023-05-26T14:59:52.640Z,9.75
2023-05-26T15:02:23.416Z,6.82
2023-05-26T15:04:53.160Z,7.43
2023-05-26T15:07:23.092Z,10.80
2023-05-26T15:09:55.382Z,6.93
2023-05-26T15:12:25.301Z,8.02
2023-05-26T15:14:54.930Z,7.22
2023-05-26T15:17:24.824Z,8.18
2023-05-26T15:19:54.457Z,6.85
2023-05-26T15:22:24.110Z,8.48
2023-05-26T15:24:56.418Z,8.90
2023-05-26T15:27:27.909Z,6.18
2023-05-26T15:29:57.546Z,7.43
2023-05-26T15:32:27.912Z,6.40
2023-05-26T15:34:57.642Z,6.93
2023-05-26T15:37:29.207Z,9.43
2023-05-26T15:40:02.983Z,7.03
2023-05-26T15:42:32.971Z,8.75
2023-05-26T15:45:07.770Z,7.15
2023-05-26T15:47:37.814Z,7.20
2023-05-26T15:50:08.775Z,11.32
2023-05-26T15:52:39.767Z,6.25
2023-05-26T15:55:15.203Z,10.35
2023-05-26T15:57:45.145Z,5.57
2023-05-26T16:00:17.790Z,9.20
2023-05-26T16:02:47.517Z,9.65
2023-05-26T16:05:17.127Z,6.75
2023-05-26T16:07:46.883Z,7.50
2023-05-26T16:10:19.359Z,8.90
2023-05-26T16:12:48.970Z,9.95
2023-05-26T16:15:20.996Z,8.30
2023-05-26T16:17:52.501Z,8.90
2023-05-26T16:20:22.248Z,9.63
2023-05-26T16:22:52.102Z,10.93
2023-05-26T16:25:24.629Z,7.18
2023-05-26T16:27:54.520Z,5.60
2023-05-26T16:30:24.249Z,9.13
2023-05-26T16:32:53.931Z,8.20
2023-05-26T16:35:23.805Z,8.85
2023-05-26T16:37:53.566Z,6.00
2023-05-26T16:40:27.964Z,9.35
2023-05-26T16:42:57.610Z,6.45
2023-05-26T16:45:27.807Z,6.72
2023-05-26T16:47:58.589Z,6.80
2023-05-26T16:50:29.203Z,7.78
2023-05-26T16:52:58.881Z,6.75
2023-05-26T16:55:33.642Z,9.45
2023-05-26T16:58:04.782Z,10.20
2023-05-26T17:00:34.454Z,8.77
2023-05-26T17:03:04.172Z,7.07
2023-05-26T17:05:33.900Z,9.85
2023-05-26T17:08:03.790Z,8.88
2023-05-26T17:10:36.824Z,6.60
2023-05-26T17:13:06.433Z,8.30
2023-05-26T17:15:36.077Z,7.80
2023-05-26T17:18:05.927Z,7.53
2023-05-26T17:20:38.817Z,11.13
2023-05-26T17:23:10.037Z,8.68
2023-05-26T17:25:45.987Z,9.80
2023-05-26T17:28:16.815Z,12.77
2023-05-26T17:30:46.562Z,8.55
2023-05-26T17:33:18.663Z,9.45
2023-05-26T17:35:48.323Z,6.45
2023-05-26T17:38:18.312Z,7.45
2023-05-26T17:40:51.987Z,7.93
2023-05-26T17:43:21.728Z,12.25
2023-05-26T17:45:51.437Z,6.43
2023-05-26T17:48:21.059Z,10.77
2023-05-26T17:50:51.765Z,8.35
2023-05-26T17:53:22.140Z,8.30
2023-05-26T17:55:57.778Z,8.25
2023-05-26T17:58:27.421Z,7.30
2023-05-26T18:00:58.277Z,9.02
2023-05-26T18:03:28.476Z,8.93
2023-05-26T18:05:58.227Z,10.35
2023-05-26T18:08:30.524Z,8.18
2023-05-26T18:11:06.418Z,8.85
2023-05-26T18:16:07.847Z,7.50
2023-05-26T18:18:37.584Z,9.73
2023-05-26T18:21:09.397Z,9.25
2023-05-26T18:23:38.996Z,6.72
2023-05-26T18:26:11.356Z,9.18
2023-05-26T18:28:40.999Z,6.45
2023-05-26T18:31:12.316Z,10.82
2023-05-26T18:33:42.784Z,10.23
2023-05-26T18:36:12.446Z,9.43
2023-05-26T18:38:42.774Z,10.18
2023-05-26T18:41:15.747Z,9.52
2023-05-26T18:43:45.429Z,7.97
2023-05-26T18:46:15.154Z,9.18
2023-05-26T18:48:44.856Z,9.50
2023-05-26T18:51:15.880Z,11.23
2023-05-26T18:53:45.532Z,8.80
2023-05-26T18:56:17.746Z,11.02
2023-05-26T18:58:47.585Z,10.23
2023-05-26T19:01:17.810Z,12.07
2023-05-26T19:03:50.896Z,10.73
2023-05-26T19:06:22.976Z,10.95
2023-05-26T19:08:52.757Z,11.93
2023-05-26T19:11:27.792Z,13.23
2023-05-26T19:13:57.404Z,10.23
2023-05-26T19:16:27.888Z,8.43
2023-05-26T19:18:58.187Z,16.52
2023-05-26T19:21:33.748Z,12.70
2023-05-26T19:24:05.283Z,13.75
2023-05-26T19:26:41.766Z,12.68
2023-05-26T19:29:12.427Z,14.77
2023-05-26T19:31:42.176Z,10.48
2023-05-26T19:34:13.146Z,14.57
2023-05-26T19:36:43.478Z,10.65
2023-05-26T19:39:15.373Z,13.60
2023-05-26T19:41:49.763Z,9.43
2023-05-26T19:44:20.609Z,9.77
2023-05-26T19:46:52.804Z,12.27
2023-05-26T19:49:22.581Z,8.25
2023-05-26T19:51:52.291Z,10.05
2023-05-26T19:54:21.936Z,10.57
2023-05-26T19:56:54.993Z,10.55
2023-05-26T19:59:24.770Z,10.73
2023-05-26T20:01:54.505Z,12.15
2023-05-26T20:04:25.949Z,11.23
2023-05-26T20:06:56.839Z,13.70
2023-05-26T20:09:26.533Z,13.98
2023-05-26T20:11:58.728Z,12.95
2023-05-26T20:14:28.787Z,12.43
2023-05-26T20:16:58.837Z,13.95
2023-05-26T20:19:28.736Z,9.85
2023-05-26T20:21:58.437Z,10.77
2023-05-26T20:24:28.346Z,9.68
2023-05-26T20:27:00.543Z,12.00
2023-05-26T20:29:30.457Z,10.23
2023-05-26T20:32:02.476Z,11.25
2023-05-26T20:34:32.786Z,11.68
2023-05-26T20:37:02.430Z,14.13
2023-05-26T20:39:32.745Z,10.52
2023-05-26T20:42:05.262Z,11.43
2023-05-26T20:44:35.742Z,11.50
2023-05-26T20:47:06.797Z,12.95
2023-05-26T20:49:36.418Z,10.90
2023-05-26T20:52:06.389Z,12.55
2023-05-26T20:54:36.123Z,14.32
2023-05-26T20:57:09.870Z,13.82
2023-05-26T20:59:42.754Z,15.38
2023-05-26T21:02:13.017Z,12.13
2023-05-26T21:04:42.814Z,14.43
2023-05-26T21:07:12.773Z,12.05
2023-05-26T21:09:42.425Z,15.40
2023-05-26T21:12:15.842Z,10.70
2023-05-26T21:14:46.683Z,13.05
2023-05-26T21:17:16.661Z,10.48
2023-05-26T21:19:48.157Z,10.02
2023-05-26T21:22:17.905Z,17.33
2023-05-26T21:24:47.777Z,15.15
2023-05-26T21:27:20.056Z,14.05
2023-05-26T21:29:52.798Z,12.07
2023-05-26T21:32:22.527Z,11.73
2023-05-26T21:34:52.742Z,12.70
2023-05-26T21:37:22.530Z,13.55
2023-05-26T21:39:52.359Z,14.82
2023-05-26T21:42:24.772Z,14.18
2023-05-26T21:44:54.737Z,11.57
2023-05-26T21:47:25.129Z,14.63
2023-05-26T21:49:54.752Z,18.50
2023-05-26T21:52:24.980Z,16.70
2023-05-26T21:54:55.777Z,12.10
2023-05-26T21:57:28.032Z,13.15
2023-05-26T21:59:58.751Z,15.77
2023-05-26T22:02:29.790Z,10.98
2023-05-26T22:04:59.512Z,12.93
2023-05-26T22:07:29.119Z,10.68
2023-05-26T22:09:59.751Z,13.13
2023-05-26T22:12:32.149Z,12.95
2023-05-26T22:15:02.745Z,13.27
2023-05-26T22:17:32.457Z,16.42
2023-05-26T22:20:02.796Z,12.63
2023-05-26T22:22:32.521Z,14.73
2023-05-26T22:25:02.184Z,12.32
2023-05-26T22:27:34.403Z,11.88
2023-05-26T22:30:04.265Z,15.98
2023-05-26T22:32:34.077Z,17.23
2023-05-26T22:35:04.813Z,14.15
2023-05-26T22:37:34.409Z,12.73
2023-05-26T22:40:04.588Z,16.15
2023-05-26T22:42:36.839Z,12.73
2023-05-26T22:45:07.774Z,12.77
2023-05-26T22:47:37.382Z,11.10
2023-05-26T22:50:10.719Z,13.60
2023-05-26T22:52:40.686Z,12.57
2023-05-26T22:55:11.376Z,12.80
2023-05-26T22:57:43.938Z,13.05
2023-05-26T23:00:14.990Z,14.43
2023-05-26T23:02:44.897Z,11.50
2023-05-26T23:05:14.582Z,14.55
2023-05-26T23:07:44.489Z,13.60
2023-05-26T23:10:14.323Z,11.45
2023-05-26T23:12:46.739Z,17.20
2023-05-26T23:15:16.946Z,12.80
2023-05-26T23:17:47.891Z,17.80
2023-05-26T23:20:17.896Z,13.27
2023-05-26T23:22:47.767Z,13.82
2023-05-26T23:25:18.379Z,15.80
2023-05-26T23:27:51.756Z,18.05
2023-05-26T23:30:21.818Z,16.10
2023-05-26T23:32:51.537Z,17.45
2023-05-26T23:35:21.168Z,17.33
2023-05-26T23:37:52.753Z,13.45
2023-05-26T23:40:28.698Z,10.13
2023-05-26T23:43:02.762Z,23.35
2023-05-26T23:45:32.375Z,14.60
2023-05-26T23:48:05.835Z,17.58
2023-05-26T23:50:35.495Z,15.48
2023-05-26T23:53:06.226Z,11.65
2023-05-26T23:55:36.260Z,15.10
2023-05-26T23:58:08.653Z,15.02
